Time;durP1;ratioP1;P1;durP2;ratioP2;P2;SDS_P1;SDS_P2;PMS_P1;PMS_P2;Temp;Humidity;BMP_temperature;BMP_pressure;BME280_temperature;BME280_humidity;BME280_pressure;Samples;Min_cycle;Max_cycle;Signal;HPM_P1;HPM_P2
2023/02/23 00:00:19;;;;;;;;;;;;;;;;;;1895628;28;7093;-64
2023/02/23 00:01:20;;;;;;;;;;;;;;;;;;1893946;28;8010;-64
2023/02/23 00:02:18;;;;;;;;;;;;;;;;;;1894103;28;7041;-65
2023/02/23 00:03:15;;;;;;;;;;;;;;;;;;1895691;28;7009;-65
2023/02/23 00:04:13;;;;;;;;;;;;;;;;;;1895293;28;7092;-65
2023/02/23 00:05:10;;;;;;;;;;;;;;;;;;1894313;28;8101;-65
2023/02/23 00:06:08;;;;;;;;;;;;;;;;;;1893370;28;7039;-64
2023/02/23 00:07:05;;;;;;;;;;;;;;;;;;1895396;28;8053;-65
2023/02/23 00:08:03;;;;;;;;;;;;;;;;;;1896217;28;7088;-65
2023/02/23 00:09:05;;;;;;;;;;;;;;;;;;1898336;28;8030;-64
2023/02/23 00:10:03;;;;;;;;;;;;;;;;;;1897797;28;7057;-65
2023/02/23 00:11:05;;;;;;;;;;;;;;;;;;1897190;28;7001;-64
2023/02/23 00:12:06;;;;;;;;;;;;;;;;;;1897319;28;7001;-65
2023/02/23 00:13:04;;;;;;;;;;;;;;;;;;1897235;28;7092;-64
2023/02/23 00:14:02;;;;;;;;;;;;;;;;;;1897065;28;7046;-64
2023/02/23 00:14:59;;;;;;;;;;;;;;;;;;1897990;28;7092;-65
2023/02/23 00:15:57;;;;;;;;;;;;;;;;;;1897597;28;8007;-65
2023/02/23 00:16:55;;;;;;;;;;;;;;;;;;1897769;28;7038;-65
2023/02/23 00:17:56;;;;;;;;;;;;;;;;;;1895878;28;7009;-64
2023/02/23 00:18:55;;;;;;;;;;;;;;;;;;1898082;28;7120;-64
2023/02/23 00:19:54;;;;;;;;;;;;;;;;;;1897291;28;8243;-64
2023/02/23 00:20:57;;;;;;;;;;;;;;;;;;1897820;28;7050;-65
2023/02/23 00:21:57;;;;;;;;;;;;;;;;;;1897423;28;7042;-64
2023/02/23 00:22:56;;;;;;;;;;;;;;;;;;1897174;28;7125;-64
2023/02/23 00:23:56;;;;;;;;;;;;;;;;;;1897609;28;7014;-64
2023/02/23 00:24:53;;;;;;;;;;;;;;;;;;1897494;28;7038;-64
2023/02/23 00:25:50;;;;;;;;;;;;;;;;;;1897249;28;7006;-64
2023/02/23 00:26:50;;;;;;;;;;;;;;;;;;1897735;28;7930;-64
2023/02/23 00:27:48;;;;;;;;;;;;;;;;;;1897044;28;7148;-64
2023/02/23 00:28:47;;;;;;;;;;;;;;;;;;1896579;28;7127;-64
2023/02/23 00:29:48;;;;;;;;;;;;;;;;;;1897162;28;7069;-64
2023/02/23 00:30:45;;;;;;;;;;;;;;;;;;1897165;28;7005;-64
2023/02/23 00:31:44;;;;;;;;;;;;;;;;;;1897334;28;7376;-65
2023/02/23 00:32:41;;;;;;;;;;;;;;;;;;1895954;28;7005;-65
2023/02/23 00:33:40;;;;;;;;;;;;;;;;;;1896799;28;8137;-64
2023/02/23 00:34:37;;;;;;;;;;;;;;;;;;1897682;28;8043;-64
2023/02/23 00:35:35;;;;;;;;;;;;;;;;;;1897007;28;7345;-64
2023/02/23 00:36:34;;;;;;;;;;;;;;;;;;1897544;28;8054;-64
2023/02/23 00:37:31;;;;;;;;;;;;;;;;;;1896904;28;7013;-65
2023/02/23 00:38:33;;;;;;;;;;;;;;;;;;1896879;28;7360;-63
2023/02/23 00:39:31;;;;;;;;;;;;;;;;;;1897081;28;7025;-63
2023/02/23 00:40:28;;;;;;;;;;;;;;;;;;1897300;28;7046;-63
2023/02/23 00:41:29;;;;;;;;;;;;;;;;;;1897373;28;8072;-64
2023/02/23 00:42:30;;;;;;;;;;;;;;;;;;1896302;28;7049;-64
2023/02/23 00:43:28;;;;;;;;;;;;;;;;;;1897239;28;8083;-64
2023/02/23 00:44:25;;;;;;;;;;;;;;;;;;1897955;28;7046;-64
2023/02/23 00:45:23;;;;;;;;;;;;;;;;;;1897289;28;7026;-64
2023/02/23 00:46:22;;;;;;;;;;;;;;;;;;1897326;28;7006;-63
2023/02/23 00:47:19;;;;;;;;;;;;;;;;;;1897746;28;7085;-64
2023/02/23 00:48:16;;;;;;;;;;;;;;;;;;1895756;28;7096;-64
2023/02/23 00:49:15;;;;;;;;;;;;;;;;;;1897362;28;7009;-64
2023/02/23 00:50:14;;;;;;;;;;;;;;;;;;1897777;28;7009;-64
2023/02/23 00:51:12;;;;;;;;;;;;;;;;;;1897199;28;7046;-64
2023/02/23 00:52:09;;;;;;;;;;;;;;;;;;1896487;28;7505;-63
2023/02/23 00:53:07;;;;;;;;;;;;;;;;;;1896243;28;7010;-64
2023/02/23 00:54:10;;;;;;;;;;;;;;;;;;1889621;28;7192;-63
2023/02/23 00:55:11;;;;;;;;;;;;;;;;;;1889120;28;8102;-64
2023/02/23 00:56:11;;;;;;;;;;;;;;;;;;1896577;28;8064;-63
2023/02/23 00:57:09;;;;;;;;;;;;;;;;;;1897561;28;7042;-63
2023/02/23 00:58:08;;;;;;;;;;;;;;;;;;1897579;28;7070;-64
2023/02/23 00:59:05;;;;;;;;;;;;;;;;;;1897439;28;7219;-64
2023/02/23 01:00:12;;;;;;;;;;;;;;;;;;1897240;28;7002;-64
2023/02/23 01:01:11;;;;;;;;;;;;;;;;;;1897269;28;7134;-64
2023/02/23 01:02:09;;;;;;;;;;;;;;;;;;1896802;28;7005;-64
2023/02/23 01:03:06;;;;;;;;;;;;;;;;;;1896932;28;7001;-64
2023/02/23 01:04:04;;;;;;;;;;;;;;;;;;1897121;28;7092;-64
2023/02/23 01:05:01;;;;;;;;;;;;;;;;;;1897184;28;7316;-64
2023/02/23 01:05:59;;;;;;;;;;;;;;;;;;1895980;28;7010;-63
2023/02/23 01:06:57;;;;;;;;;;;;;;;;;;1897457;28;8095;-64
2023/02/23 01:07:54;;;;;;;;;;;;;;;;;;1896869;28;7097;-64
2023/02/23 01:08:55;;;;;;;;;;;;;;;;;;1897180;28;8164;-64
2023/02/23 01:09:53;;;;;;;;;;;;;;;;;;1897287;28;7006;-64
2023/02/23 01:10:53;;;;;;;;;;;;;;;;;;1897179;28;7198;-64
2023/02/23 01:11:50;;;;;;;;;;;;;;;;;;1897209;28;7591;-63
2023/02/23 01:12:49;;;;;;;;;;;;;;;;;;1897456;28;7141;-64
2023/02/23 01:13:48;;;;;;;;;;;;;;;;;;1897570;28;7957;-64
2023/02/23 01:14:46;;;;;;;;;;;;;;;;;;1896958;28;7006;-64
2023/02/23 01:15:43;;;;;;;;;;;;;;;;;;1897337;28;7096;-64
2023/02/23 01:16:41;;;;;;;;;;;;;;;;;;1896696;28;7215;-64
2023/02/23 01:17:38;;;;;;;;;;;;;;;;;;1897213;28;7013;-64
2023/02/23 01:18:36;;;;;;;;;;;;;;;;;;1897222;28;8157;-64
2023/02/23 01:19:34;;;;;;;;;;;;;;;;;;1897327;28;7096;-63
2023/02/23 01:20:34;;;;;;;;;;;;;;;;;;1897218;28;7215;-64
2023/02/23 01:21:34;;;;;;;;;;;;;;;;;;1897996;28;7053;-64
2023/02/23 01:22:31;;;;;;;;;;;;;;;;;;1895619;28;7014;-64
2023/02/23 01:23:29;;;;;;;;;;;;;;;;;;1896964;28;7201;-64
2023/02/23 01:24:27;;;;;;;;;;;;;;;;;;1895417;28;7009;-64
2023/02/23 01:25:27;;;;;;;;;;;;;;;;;;1897063;28;7100;-64
2023/02/23 01:26:26;;;;;;;;;;;;;;;;;;1895341;28;7046;-64
2023/02/23 01:27:24;;;;;;;;;;;;;;;;;;1895935;28;7017;-64
2023/02/23 01:28:22;;;;;;;;;;;;;;;;;;1897079;28;7089;-65
2023/02/23 01:29:19;;;;;;;;;;;;;;;;;;1897237;28;8166;-64
2023/02/23 01:30:17;;;;;;;;;;;;;;;;;;1897041;28;7307;-63
2023/02/23 01:31:14;;;;;;;;;;;;;;;;;;1897226;28;7160;-63
2023/02/23 01:32:12;;;;;;;;;;;;;;;;;;1897169;28;8047;-64
2023/02/23 01:33:11;;;;;;;;;;;;;;;;;;1897338;28;7006;-64
2023/02/23 01:34:13;;;;;;;;;;;;;;;;;;1896657;28;7005;-64
2023/02/23 01:35:11;;;;;;;;;;;;;;;;;;1895974;28;7053;-63
2023/02/23 01:36:09;;;;;;;;;;;;;;;;;;1896178;28;7009;-64
2023/02/23 01:37:07;;;;;;;;;;;;;;;;;;1896694;28;8026;-64
2023/02/23 01:38:05;;;;;;;;;;;;;;;;;;1897339;28;7010;-64
2023/02/23 01:39:05;;;;;;;;;;;;;;;;;;1897450;28;7018;-64
2023/02/23 01:40:38;;;;;;;;;;;;;;;;;;1895788;28;7176;-63
2023/02/23 01:41:27;;;;;;;;;;;;;;;;;;1894305;28;7356;-64
2023/02/23 01:42:24;;;;;;;;;;;;;;;;;;1896900;28;7010;-63
2023/02/23 01:43:27;;;;;;;;;;;;;;;;;;1895776;28;7109;-64
2023/02/23 01:44:25;;;;;;;;;;;;;;;;;;1895836;28;7105;-63
2023/02/23 01:45:33;;;;;;;;;;;;;;;;;;1896906;28;7014;-63
2023/02/23 01:46:32;;;;;;;;;;;;;;;;;;1896615;28;7010;-64
2023/02/23 01:47:29;;;;;;;;;;;;;;;;;;1895847;28;7035;-64
2023/02/23 01:48:35;;;;;;;;;;;;;;;;;;1896940;28;7042;-63
2023/02/23 01:49:35;;;;;;;;;;;;;;;;;;1889429;28;7042;-64
2023/02/23 01:50:54;;;;;;;;;;;;;;;;;;1889726;28;7092;-64
2023/02/23 01:51:54;;;;;;;;;;;;;;;;;;1889155;28;7935;-64
2023/02/23 01:52:53;;;;;;;;;;;;;;;;;;1889696;28;7005;-64
2023/02/23 01:53:55;;;;;;;;;;;;;;;;;;1889731;28;7006;-64
2023/02/23 01:54:54;;;;;;;;;;;;;;;;;;1889439;28;7335;-64
2023/02/23 01:55:58;;;;;;;;;;;;;;;;;;1889474;28;7093;-64
2023/02/23 01:56:59;;;;;;;;;;;;;;;;;;1889354;28;7002;-64
2023/02/23 01:58:02;;;;;;;;;;;;;;;;;;1889212;28;7093;-63
2023/02/23 01:59:04;;;;;;;;;;;;;;;;;;1887960;28;7006;-64
2023/02/23 02:00:03;;;;;;;;;;;;;;;;;;1889451;28;7022;-63
2023/02/23 02:01:01;;;;;;;;;;;;;;;;;;1889402;28;7280;-63
2023/02/23 02:01:59;;;;;;;;;;;;;;;;;;1889376;28;7542;-64
2023/02/23 02:02:58;;;;;;;;;;;;;;;;;;1889675;28;7129;-63
2023/02/23 02:04:00;;;;;;;;;;;;;;;;;;1888863;28;7014;-63
2023/02/23 02:04:58;;;;;;;;;;;;;;;;;;1889340;28;7021;-64
2023/02/23 02:05:56;;;;;;;;;;;;;;;;;;1889282;28;7239;-63
2023/02/23 02:06:55;;;;;;;;;;;;;;;;;;1889094;28;7096;-64
2023/02/23 02:07:57;;;;;;;;;;;;;;;;;;1889184;28;7017;-64
2023/02/23 02:08:58;;;;;;;;;;;;;;;;;;1887187;28;7005;-64
2023/02/23 02:11:24;;;;;;;;;;;;;;;;;;1888989;28;7227;-64
2023/02/23 02:12:22;;;;;;;;;;;;;;;;;;1889092;28;7392;-63
2023/02/23 02:13:21;;;;;;;;;;;;;;;;;;1889816;28;7037;-63
2023/02/23 02:14:26;;;;;;;;;;;;;;;;;;1889375;28;7010;-63
2023/02/23 02:15:30;;;;;;;;;;;;;;;;;;1889274;28;7037;-64
2023/02/23 02:16:30;;;;;;;;;;;;;;;;;;1887091;28;7006;-64
2023/02/23 02:17:30;;;;;;;;;;;;;;;;;;1889468;28;7030;-64
2023/02/23 02:18:40;;;;;;;;;;;;;;;;;;1889358;28;7078;-64
2023/02/23 02:19:47;;;;;;;;;;;;;;;;;;1889328;28;7097;-64
2023/02/23 02:21:14;;;;;;;;;;;;;;;;;;1889714;28;7005;-63
2023/02/23 02:22:24;;;;;;;;;;;;;;;;;;1888784;28;7010;-64
2023/02/23 02:23:26;;;;;;;;;;;;;;;;;;1889277;28;7308;-64
2023/02/23 02:24:42;;;;;;;;;;;;;;;;;;1888282;28;7010;-64
2023/02/23 02:25:45;;;;;;;;;;;;;;;;;;1888381;28;7013;-63
2023/02/23 02:26:46;;;;;;;;;;;;;;;;;;1888594;28;7010;-63
2023/02/23 02:27:49;;;;;;;;;;;;;;;;;;1888842;28;7014;-64
2023/02/23 02:29:05;;;;;;;;;;;;;;;;;;1888944;28;7006;-64
2023/02/23 02:30:21;;;;;;;;;;;;;;;;;;1888550;28;7006;-63
2023/02/23 02:31:37;;;;;;;;;;;;;;;;;;1888940;28;9388;-64
2023/02/23 02:32:47;;;;;;;;;;;;;;;;;;1886791;28;7010;-64
2023/02/23 02:33:44;;;;;;;;;;;;;;;;;;1889267;28;7097;-64
2023/02/23 02:34:42;;;;;;;;;;;;;;;;;;1888816;28;7042;-64
2023/02/23 02:36:00;;;;;;;;;;;;;;;;;;1888724;28;8617;-64
2023/02/23 02:37:09;;;;;;;;;;;;;;;;;;1879978;28;7902;-64
2023/02/23 02:38:25;;;;;;;;;;;;;;;;;;1881411;28;7390;-64
2023/02/23 02:39:33;;;;;;;;;;;;;;;;;;1889166;28;7005;-63
2023/02/23 02:40:52;;;;;;;;;;;;;;;;;;1888835;28;7009;-64
2023/02/23 02:41:58;;;;;;;;;;;;;;;;;;1889556;28;7121;-63
2023/02/23 02:43:10;;;;;;;;;;;;;;;;;;1888922;28;7407;-64
2023/02/23 02:44:16;;;;;;;;;;;;;;;;;;1889794;28;8043;-64
2023/02/23 02:45:13;;;;;;;;;;;;;;;;;;1889457;28;7010;-63
2023/02/23 02:46:27;;;;;;;;;;;;;;;;;;1888886;28;7351;-64
2023/02/23 02:47:33;;;;;;;;;;;;;;;;;;1888070;28;7125;-63
2023/02/23 02:48:37;;;;;;;;;;;;;;;;;;1886944;28;7221;-64
2023/02/23 02:49:42;;;;;;;;;;;;;;;;;;1888021;28;7139;-64
2023/02/23 02:50:42;;;;;;;;;;;;;;;;;;1889358;28;7501;-64
2023/02/23 02:51:44;;;;;;;;;;;;;;;;;;1888964;28;7006;-64
2023/02/23 02:52:48;;;;;;;;;;;;;;;;;;1888620;28;7026;-64
2023/02/23 02:54:07;;;;;;;;;;;;;;;;;;1889638;28;7042;-64
2023/02/23 02:55:17;;;;;;;;;;;;;;;;;;1887938;28;7057;-64
2023/02/23 02:56:20;;;;;;;;;;;;;;;;;;1887801;28;7038;-64
2023/02/23 02:57:19;;;;;;;;;;;;;;;;;;1888777;28;7010;-63
2023/02/23 02:58:17;;;;;;;;;;;;;;;;;;1889050;28;7188;-64
2023/02/23 04:18:13;;;;;;;;;;;;;;;;;;1889206;28;7340;-65
2023/02/23 04:19:11;;;;;;;;;;;;;;;;;;1889796;28;7057;-64
2023/02/23 04:20:11;;;;;;;;;;;;;;;;;;1890497;28;7073;-64
2023/02/23 04:21:08;;;;;;;;;;;;;;;;;;1890112;28;7009;-64
2023/02/23 04:22:05;;;;;;;;;;;;;;;;;;1889932;28;7006;-64
2023/02/23 04:23:03;;;;;;;;;;;;;;;;;;1889820;28;7026;-64
2023/02/23 04:24:00;;;;;;;;;;;;;;;;;;1888498;28;7129;-64
2023/02/23 04:24:58;;;;;;;;;;;;;;;;;;1890151;28;7209;-63
2023/02/23 04:25:55;;;;;;;;;;;;;;;;;;1890093;28;7092;-63
2023/02/23 04:26:53;;;;;;;;;;;;;;;;;;1882592;28;7819;-64
2023/02/23 04:27:50;;;;;;;;;;;;;;;;;;1882251;28;7123;-64
2023/02/23 04:28:48;;;;;;;;;;;;;;;;;;1887439;28;7039;-64
2023/02/23 04:29:45;;;;;;;;;;;;;;;;;;1888647;28;7010;-64
2023/02/23 04:30:42;;;;;;;;;;;;;;;;;;1889892;28;7093;-64
2023/02/23 04:31:40;;;;;;;;;;;;;;;;;;1890248;28;7356;-64
2023/02/23 04:32:37;;;;;;;;;;;;;;;;;;1889879;28;7006;-64
2023/02/23 04:33:35;;;;;;;;;;;;;;;;;;1889105;28;8112;-63
2023/02/23 04:34:32;;;;;;;;;;;;;;;;;;1889668;28;7109;-64
2023/02/23 04:35:30;;;;;;;;;;;;;;;;;;1889572;28;7038;-64
2023/02/23 04:36:27;;;;;;;;;;;;;;;;;;1889864;28;7364;-64
2023/02/23 04:37:25;;;;;;;;;;;;;;;;;;1889760;28;7090;-64
2023/02/23 04:38:22;;;;;;;;;;;;;;;;;;1889849;28;7002;-63
2023/02/23 04:39:20;;;;;;;;;;;;;;;;;;1888926;28;7042;-63
2023/02/23 04:40:17;;;;;;;;;;;;;;;;;;1890058;28;7030;-64
2023/02/23 04:41:14;;;;;;;;;;;;;;;;;;1889387;28;7010;-63
2023/02/23 04:42:12;;;;;;;;;;;;;;;;;;1889725;28;7137;-63
2023/02/23 04:43:14;;;;;;;;;;;;;;;;;;1890034;28;7097;-64
2023/02/23 04:44:11;;;;;;;;;;;;;;;;;;1889783;28;7025;-63
2023/02/23 04:45:09;;;;;;;;;;;;;;;;;;1889736;28;7029;-63
2023/02/23 04:46:07;;;;;;;;;;;;;;;;;;1890246;28;7013;-63
2023/02/23 04:47:04;;;;;;;;;;;;;;;;;;1889666;28;9660;-64
2023/02/23 04:48:02;;;;;;;;;;;;;;;;;;1888656;28;7061;-63
2023/02/23 04:48:59;;;;;;;;;;;;;;;;;;1889776;28;7113;-63
2023/02/23 04:49:57;;;;;;;;;;;;;;;;;;1881702;28;7133;-63
2023/02/23 04:50:54;;;;;;;;;;;;;;;;;;1878386;28;8096;-64
2023/02/23 04:51:51;;;;;;;;;;;;;;;;;;1886513;28;7116;-63
2023/02/23 04:52:49;;;;;;;;;;;;;;;;;;1889173;28;7002;-63
2023/02/23 04:53:46;;;;;;;;;;;;;;;;;;1890503;28;7013;-64
2023/02/23 04:54:44;;;;;;;;;;;;;;;;;;1890282;28;7042;-64
2023/02/23 04:55:41;;;;;;;;;;;;;;;;;;1889745;28;7434;-64
2023/02/23 04:56:39;;;;;;;;;;;;;;;;;;1889674;28;7073;-64
2023/02/23 04:57:36;;;;;;;;;;;;;;;;;;1889338;28;7001;-64
2023/02/23 04:58:33;;;;;;;;;;;;;;;;;;1889906;28;7069;-63
2023/02/23 04:59:31;;;;;;;;;;;;;;;;;;1889885;28;7108;-63
2023/02/23 05:00:28;;;;;;;;;;;;;;;;;;1890588;28;7005;-64
2023/02/23 05:01:27;;;;;;;;;;;;;;;;;;1890193;28;7002;-64
2023/02/23 05:02:25;;;;;;;;;;;;;;;;;;1888688;28;7097;-64
2023/02/23 05:03:23;;;;;;;;;;;;;;;;;;1889612;28;7040;-63
2023/02/23 05:04:20;;;;;;;;;;;;;;;;;;1889742;28;7002;-64
2023/02/23 05:05:17;;;;;;;;;;;;;;;;;;1890521;28;7113;-63
2023/02/23 05:06:16;;;;;;;;;;;;;;;;;;1890132;28;7092;-64
2023/02/23 05:07:13;;;;;;;;;;;;;;;;;;1890239;28;7089;-63
2023/02/23 05:08:11;;;;;;;;;;;;;;;;;;1888074;28;8122;-64
2023/02/23 05:09:08;;;;;;;;;;;;;;;;;;1890070;28;7038;-64
2023/02/23 05:10:06;;;;;;;;;;;;;;;;;;1890247;28;7010;-64
2023/02/23 05:11:04;;;;;;;;;;;;;;;;;;1890202;28;7131;-64
2023/02/23 05:12:02;;;;;;;;;;;;;;;;;;1890115;28;7006;-63
2023/02/23 05:13:00;;;;;;;;;;;;;;;;;;1890048;28;7034;-64
2023/02/23 05:13:57;;;;;;;;;;;;;;;;;;1888947;28;8019;-64
2023/02/23 05:14:55;;;;;;;;;;;;;;;;;;1888283;28;7077;-64
2023/02/23 05:15:56;;;;;;;;;;;;;;;;;;1889637;28;7009;-64
2023/02/23 05:16:54;;;;;;;;;;;;;;;;;;1890447;28;7042;-64
2023/02/23 05:17:52;;;;;;;;;;;;;;;;;;1889233;28;7962;-63
2023/02/23 05:18:50;;;;;;;;;;;;;;;;;;1889869;28;7070;-64
2023/02/23 05:19:48;;;;;;;;;;;;;;;;;;1888593;28;7009;-64
2023/02/23 05:20:46;;;;;;;;;;;;;;;;;;1881707;28;8842;-64
2023/02/23 05:21:43;;;;;;;;;;;;;;;;;;1881335;28;8636;-63
2023/02/23 05:22:41;;;;;;;;;;;;;;;;;;1887927;28;7093;-63
2023/02/23 05:23:38;;;;;;;;;;;;;;;;;;1890212;28;7049;-63
2023/02/23 05:24:36;;;;;;;;;;;;;;;;;;1888304;28;7010;-63
2023/02/23 05:25:34;;;;;;;;;;;;;;;;;;1890176;28;7125;-64
2023/02/23 05:26:31;;;;;;;;;;;;;;;;;;1888315;28;7096;-64
2023/02/23 05:27:29;;;;;;;;;;;;;;;;;;1889686;28;7116;-64
2023/02/23 05:28:26;;;;;;;;;;;;;;;;;;1890493;28;7018;-63
2023/02/23 05:29:24;;;;;;;;;;;;;;;;;;1889601;28;7136;-64
2023/02/23 05:30:21;;;;;;;;;;;;;;;;;;1889826;28;7005;-64
2023/02/23 05:31:19;;;;;;;;;;;;;;;;;;1889478;28;7005;-64
2023/02/23 05:32:17;;;;;;;;;;;;;;;;;;1889382;28;7075;-63
2023/02/23 05:33:14;;;;;;;;;;;;;;;;;;1889596;28;7006;-63
2023/02/23 05:34:15;;;;;;;;;;;;;;;;;;1889953;28;7128;-64
2023/02/23 05:35:13;;;;;;;;;;;;;;;;;;1889748;28;7005;-64
2023/02/23 05:36:11;;;;;;;;;;;;;;;;;;1889503;28;7344;-64
2023/02/23 05:37:09;;;;;;;;;;;;;;;;;;1889493;28;7141;-64
2023/02/23 05:38:06;;;;;;;;;;;;;;;;;;1889616;28;7001;-63
2023/02/23 05:39:04;;;;;;;;;;;;;;;;;;1889315;28;7006;-64
2023/02/23 05:40:01;;;;;;;;;;;;;;;;;;1889954;28;8117;-64
2023/02/23 05:41:03;;;;;;;;;;;;;;;;;;1889607;28;7006;-63
2023/02/23 05:42:00;;;;;;;;;;;;;;;;;;1889141;28;7127;-64
2023/02/23 05:42:58;;;;;;;;;;;;;;;;;;1888804;28;7009;-64
2023/02/23 05:43:56;;;;;;;;;;;;;;;;;;1889312;28;8493;-64
2023/02/23 05:44:53;;;;;;;;;;;;;;;;;;1881683;28;8711;-64
2023/02/23 05:45:51;;;;;;;;;;;;;;;;;;1881702;28;7010;-64
2023/02/23 05:46:48;;;;;;;;;;;;;;;;;;1888082;28;7066;-64
2023/02/23 05:47:45;;;;;;;;;;;;;;;;;;1889066;28;7070;-64
2023/02/23 05:48:43;;;;;;;;;;;;;;;;;;1889458;28;7034;-64
2023/02/23 05:49:40;;;;;;;;;;;;;;;;;;1889548;28;7041;-64
2023/02/23 05:50:38;;;;;;;;;;;;;;;;;;1889191;28;7005;-64
2023/02/23 05:51:35;;;;;;;;;;;;;;;;;;1889538;28;7002;-64
2023/02/23 05:52:36;;;;;;;;;;;;;;;;;;1889314;28;7009;-64
2023/02/23 05:53:34;;;;;;;;;;;;;;;;;;1889296;28;7021;-64
2023/02/23 05:54:31;;;;;;;;;;;;;;;;;;1889501;28;7001;-63
2023/02/23 05:55:29;;;;;;;;;;;;;;;;;;1889618;28;7001;-64
2023/02/23 05:56:26;;;;;;;;;;;;;;;;;;1889682;28;7006;-64
2023/02/23 05:57:24;;;;;;;;;;;;;;;;;;1890029;28;7006;-63
2023/02/23 05:58:22;;;;;;;;;;;;;;;;;;1888803;28;8027;-64
2023/02/23 05:59:19;;;;;;;;;;;;;;;;;;1889678;28;7081;-64
2023/02/23 06:00:17;;;;;;;;;;;;;;;;;;1889615;28;7001;-64
2023/02/23 06:01:16;;;;;;;;;;;;;;;;;;1889431;28;7356;-63
2023/02/23 06:02:14;;;;;;;;;;;;;;;;;;1889760;28;7038;-64
2023/02/23 06:03:11;;;;;;;;;;;;;;;;;;1890289;28;8132;-64
2023/02/23 06:04:09;;;;;;;;;;;;;;;;;;1889406;28;7092;-64
2023/02/23 06:05:07;;;;;;;;;;;;;;;;;;1888652;28;7006;-65
2023/02/23 06:06:04;;;;;;;;;;;;;;;;;;1888987;28;7013;-64
2023/02/23 06:07:02;;;;;;;;;;;;;;;;;;1889264;28;7009;-64
2023/02/23 06:08:00;;;;;;;;;;;;;;;;;;1888765;28;7009;-64
2023/02/23 06:08:57;;;;;;;;;;;;;;;;;;1889774;28;8119;-64
2023/02/23 06:09:55;;;;;;;;;;;;;;;;;;1888417;28;8091;-64
2023/02/23 06:10:52;;;;;;;;;;;;;;;;;;1888751;28;7033;-63
2023/02/23 06:11:50;;;;;;;;;;;;;;;;;;1881753;28;7764;-63
2023/02/23 06:12:47;;;;;;;;;;;;;;;;;;1881076;28;7010;-64
2023/02/23 06:13:45;;;;;;;;;;;;;;;;;;1886804;28;8030;-64
2023/02/23 06:14:42;;;;;;;;;;;;;;;;;;1889555;28;7096;-64
2023/02/23 06:15:40;;;;;;;;;;;;;;;;;;1889458;28;8120;-64
2023/02/23 06:16:38;;;;;;;;;;;;;;;;;;1889672;28;7661;-64
2023/02/23 06:17:36;;;;;;;;;;;;;;;;;;1889295;28;7010;-64
2023/02/23 06:18:33;;;;;;;;;;;;;;;;;;1889272;28;7148;-65
2023/02/23 06:19:31;;;;;;;;;;;;;;;;;;1889202;28;7042;-63
2023/02/23 06:20:29;;;;;;;;;;;;;;;;;;1889079;28;7124;-64
2023/02/23 06:21:26;;;;;;;;;;;;;;;;;;1888436;28;8080;-65
2023/02/23 06:22:23;;;;;;;;;;;;;;;;;;1888923;28;7006;-64
2023/02/23 06:23:21;;;;;;;;;;;;;;;;;;1888859;28;7059;-64
2023/02/23 06:24:18;;;;;;;;;;;;;;;;;;1889246;28;7006;-64
2023/02/23 06:25:15;;;;;;;;;;;;;;;;;;1889171;28;7074;-64
2023/02/23 06:26:13;;;;;;;;;;;;;;;;;;1889352;28;7124;-64
2023/02/23 06:27:11;;;;;;;;;;;;;;;;;;1881955;28;8175;-64
2023/02/23 06:28:09;;;;;;;;;;;;;;;;;;1882133;28;7381;-64
2023/02/23 06:29:06;;;;;;;;;;;;;;;;;;1888872;28;7133;-64
2023/02/23 06:30:05;;;;;;;;;;;;;;;;;;1888165;28;7066;-64
2023/02/23 06:31:02;;;;;;;;;;;;;;;;;;1887001;28;7129;-63
2023/02/23 06:32:00;;;;;;;;;;;;;;;;;;1889129;28;8145;-64
2023/02/23 06:32:57;;;;;;;;;;;;;;;;;;1888049;28;7006;-64
2023/02/23 06:33:55;;;;;;;;;;;;;;;;;;1887804;28;7471;-64
2023/02/23 06:34:52;;;;;;;;;;;;;;;;;;1888938;28;7014;-64
2023/02/23 06:35:49;;;;;;;;;;;;;;;;;;1888868;28;7229;-64
2023/02/23 06:36:47;;;;;;;;;;;;;;;;;;1889637;28;7042;-64
2023/02/23 06:37:44;;;;;;;;;;;;;;;;;;1888665;28;7006;-64
2023/02/23 06:38:43;;;;;;;;;;;;;;;;;;1888720;28;7006;-64
2023/02/23 06:39:40;;;;;;;;;;;;;;;;;;1888790;28;7017;-64
2023/02/23 06:40:38;;;;;;;;;;;;;;;;;;1889146;28;7214;-64
2023/02/23 06:41:36;;;;;;;;;;;;;;;;;;1889046;28;8047;-64
2023/02/23 06:42:34;;;;;;;;;;;;;;;;;;1889632;28;7050;-64
2023/02/23 06:43:32;;;;;;;;;;;;;;;;;;1889798;28;8006;-64
2023/02/23 06:44:29;;;;;;;;;;;;;;;;;;1889292;28;7006;-64
2023/02/23 06:45:27;;;;;;;;;;;;;;;;;;1889353;28;7132;-64
2023/02/23 06:46:24;;;;;;;;;;;;;;;;;;1888815;28;7177;-64
2023/02/23 06:47:21;;;;;;;;;;;;;;;;;;1889602;28;8025;-65
2023/02/23 06:48:19;;;;;;;;;;;;;;;;;;1889552;28;7010;-65
2023/02/23 06:49:16;;;;;;;;;;;;;;;;;;1888046;28;7097;-65
2023/02/23 06:50:14;;;;;;;;;;;;;;;;;;1889470;28;7149;-64
2023/02/23 06:51:11;;;;;;;;;;;;;;;;;;1888790;28;7126;-65
2023/02/23 06:52:12;;;;;;;;;;;;;;;;;;1888649;28;7312;-64
2023/02/23 06:53:09;;;;;;;;;;;;;;;;;;1889107;28;7070;-64
2023/02/23 06:54:07;;;;;;;;;;;;;;;;;;1889049;28;7059;-64
2023/02/23 06:55:05;;;;;;;;;;;;;;;;;;1888675;28;8271;-64
2023/02/23 06:56:02;;;;;;;;;;;;;;;;;;1888830;28;7002;-64
2023/02/23 06:57:00;;;;;;;;;;;;;;;;;;1889572;28;7005;-64
2023/02/23 06:57:57;;;;;;;;;;;;;;;;;;1881303;28;7127;-64
2023/02/23 06:58:54;;;;;;;;;;;;;;;;;;1881098;28;7104;-64
2023/02/23 06:59:52;;;;;;;;;;;;;;;;;;1888208;28;8094;-64
2023/02/23 07:00:49;;;;;;;;;;;;;;;;;;1889113;28;7061;-64
2023/02/23 07:01:47;;;;;;;;;;;;;;;;;;1889341;28;7001;-64
2023/02/23 07:02:44;;;;;;;;;;;;;;;;;;1888878;28;7006;-64
2023/02/23 07:03:42;;;;;;;;;;;;;;;;;;1888857;28;7009;-65
2023/02/23 07:04:39;;;;;;;;;;;;;;;;;;1887309;28;7062;-64
2023/02/23 07:05:36;;;;;;;;;;;;;;;;;;1889585;28;7009;-64
2023/02/23 07:06:34;;;;;;;;;;;;;;;;;;1888825;28;7009;-64
2023/02/23 07:07:31;;;;;;;;;;;;;;;;;;1889051;28;7395;-64
2023/02/23 07:08:29;;;;;;;;;;;;;;;;;;1889199;28;7005;-64
2023/02/23 07:09:26;;;;;;;;;;;;;;;;;;1889891;28;7013;-64
2023/02/23 07:10:26;;;;;;;;;;;;;;;;;;1880825;28;7153;-64
2023/02/23 07:11:24;;;;;;;;;;;;;;;;;;1881075;28;7014;-64
2023/02/23 07:12:21;;;;;;;;;;;;;;;;;;1888370;28;7061;-65
2023/02/23 07:13:20;;;;;;;;;;;;;;;;;;1889478;28;7069;-64
2023/02/23 07:14:18;;;;;;;;;;;;;;;;;;1888027;28;7123;-64
2023/02/23 07:15:23;;;;;;;;;;;;;;;;;;1888767;28;7006;-64
2023/02/23 07:16:20;;;;;;;;;;;;;;;;;;1889071;28;7006;-64
2023/02/23 07:17:18;;;;;;;;;;;;;;;;;;1888824;28;7057;-64
2023/02/23 07:18:15;;;;;;;;;;;;;;;;;;1888936;28;7074;-64
2023/02/23 07:19:12;;;;;;;;;;;;;;;;;;1888748;28;7001;-64
2023/02/23 07:20:10;;;;;;;;;;;;;;;;;;1889138;28;7109;-64
2023/02/23 07:21:08;;;;;;;;;;;;;;;;;;1889757;28;7013;-64
2023/02/23 07:22:05;;;;;;;;;;;;;;;;;;1886615;28;8142;-64
2023/02/23 07:23:02;;;;;;;;;;;;;;;;;;1889097;28;7014;-65
2023/02/23 07:24:03;;;;;;;;;;;;;;;;;;1888024;28;7002;-64
2023/02/23 07:25:00;;;;;;;;;;;;;;;;;;1888797;28;7013;-65
2023/02/23 07:25:59;;;;;;;;;;;;;;;;;;1888140;28;7179;-64
2023/02/23 07:26:57;;;;;;;;;;;;;;;;;;1887823;28;7005;-64
2023/02/23 07:27:54;;;;;;;;;;;;;;;;;;1887568;28;7034;-64
2023/02/23 07:28:52;;;;;;;;;;;;;;;;;;1889241;28;7155;-64
2023/02/23 07:29:50;;;;;;;;;;;;;;;;;;1888828;28;8188;-64
2023/02/23 07:30:48;;;;;;;;;;;;;;;;;;1889391;28;8055;-64
2023/02/23 07:31:48;;;;;;;;;;;;;;;;;;1888771;28;7013;-65
2023/02/23 07:32:46;;;;;;;;;;;;;;;;;;1888924;28;7042;-64
2023/02/23 07:33:43;;;;;;;;;;;;;;;;;;1888987;28;7054;-64
2023/02/23 07:34:41;;;;;;;;;;;;;;;;;;1888008;28;7399;-64
2023/02/23 07:35:38;;;;;;;;;;;;;;;;;;1887025;28;7070;-64
2023/02/23 07:36:35;;;;;;;;;;;;;;;;;;1889128;28;7014;-64
2023/02/23 07:37:33;;;;;;;;;;;;;;;;;;1888703;28;7002;-65
2023/02/23 07:38:30;;;;;;;;;;;;;;;;;;1888991;28;7006;-64
2023/02/23 07:39:28;;;;;;;;;;;;;;;;;;1888780;28;8654;-64
2023/02/23 07:40:26;;;;;;;;;;;;;;;;;;1888632;28;8041;-64
2023/02/23 07:41:23;;;;;;;;;;;;;;;;;;1889086;28;7036;-64
2023/02/23 07:42:20;;;;;;;;;;;;;;;;;;1886847;28;8161;-64
2023/02/23 07:43:21;;;;;;;;;;;;;;;;;;1888922;28;7116;-64
2023/02/23 07:44:19;;;;;;;;;;;;;;;;;;1888101;28;8861;-64
2023/02/23 07:45:16;;;;;;;;;;;;;;;;;;1889693;28;7018;-65
2023/02/23 07:46:14;;;;;;;;;;;;;;;;;;1887170;28;7018;-65
2023/02/23 07:47:11;;;;;;;;;;;;;;;;;;1889172;28;7013;-64
2023/02/23 07:48:09;;;;;;;;;;;;;;;;;;1888233;28;7113;-64
2023/02/23 07:49:06;;;;;;;;;;;;;;;;;;1888431;28;7078;-64
2023/02/23 07:50:08;;;;;;;;;;;;;;;;;;1888630;28;8098;-64
2023/02/23 07:51:10;;;;;;;;;;;;;;;;;;1888805;28;7010;-64
2023/02/23 07:52:08;;;;;;;;;;;;;;;;;;1889462;28;7312;-64
2023/02/23 07:53:05;;;;;;;;;;;;;;;;;;1888516;28;7218;-65
2023/02/23 07:54:03;;;;;;;;;;;;;;;;;;1889123;28;7124;-64
2023/02/23 07:55:01;;;;;;;;;;;;;;;;;;1889094;28;8027;-64
2023/02/23 07:56:00;;;;;;;;;;;;;;;;;;1888271;28;7030;-65
2023/02/23 07:56:58;;;;;;;;;;;;;;;;;;1889286;28;7006;-64
2023/02/23 07:57:55;;;;;;;;;;;;;;;;;;1888611;28;8058;-64
2023/02/23 07:58:54;;;;;;;;;;;;;;;;;;1888445;28;7010;-64
2023/02/23 07:59:51;;;;;;;;;;;;;;;;;;1889127;28;7089;-65
2023/02/23 08:00:49;;;;;;;;;;;;;;;;;;1888926;28;8716;-64
2023/02/23 08:01:46;;;;;;;;;;;;;;;;;;1889079;28;7972;-65
2023/02/23 08:02:43;;;;;;;;;;;;;;;;;;1888928;28;7033;-64
2023/02/23 08:03:48;;;;;;;;;;;;;;;;;;1889299;28;7042;-64
2023/02/23 08:04:47;;;;;;;;;;;;;;;;;;1889440;28;7002;-64
2023/02/23 08:05:44;;;;;;;;;;;;;;;;;;1889246;28;7013;-64
2023/02/23 08:06:42;;;;;;;;;;;;;;;;;;1888510;28;8020;-64
2023/02/23 08:07:39;;;;;;;;;;;;;;;;;;1888973;28;8106;-64
2023/02/23 08:08:36;;;;;;;;;;;;;;;;;;1888907;28;7005;-65
2023/02/23 08:11:09;;;;;;;;;;;;;;;;;;1888630;28;7096;-65
2023/02/23 08:12:06;;;;;;;;;;;;;;;;;;1881622;28;7044;-65
2023/02/23 08:13:04;;;;;;;;;;;;;;;;;;1881293;28;7014;-64